Time;durP1;ratioP1;P1;durP2;ratioP2;P2;SDS_P1;SDS_P2;PMS_P1;PMS_P2;Temp;Humidity;BMP_temperature;BMP_pressure;BME280_temperature;BME280_humidity;BME280_pressure;Samples;Min_cycle;Max_cycle;Signal;HPM_P1;HPM_P2
2023/09/23 00:01:43;;;;;;;1.00;0.90;;;14.80;99.90;;;-141.84;76.69;20283.34;4983565;28;20231;-61
2023/09/23 00:04:11;;;;;;;1.55;0.95;;;14.70;99.90;;;-141.84;77.50;20256.91;4981635;28;20230;-62
2023/09/23 00:06:40;;;;;;;2.08;1.08;;;14.70;99.90;;;-141.84;78.53;20238.63;4976681;28;20215;-62
2023/09/23 00:09:10;;;;;;;1.27;1.02;;;14.60;99.90;;;-141.84;79.38;20200.00;4986736;28;20629;-61
2023/09/23 00:11:40;;;;;;;1.67;0.85;;;14.50;99.90;;;-141.84;77.08;20273.19;4979391;28;20263;-61
2023/09/23 00:14:09;;;;;;;1.00;0.90;;;14.50;99.90;;;-141.84;76.91;20328.06;4977633;28;20241;-61
2023/09/23 00:16:37;;;;;;;0.98;0.98;;;14.60;99.90;;;-141.84;76.95;20287.41;4985707;28;20239;-61
2023/09/23 00:19:08;;;;;;;1.60;1.10;;;14.60;99.90;;;-141.84;77.49;20250.81;4985239;28;20223;-62
2023/09/23 00:21:37;;;;;;;2.13;1.13;;;14.50;99.90;;;-141.84;78.36;20232.53;4980407;28;20254;-62
2023/09/23 00:24:05;;;;;;;2.20;1.10;;;14.50;99.90;;;-141.84;78.50;20220.34;4974311;28;20779;-62
2023/09/23 00:26:33;;;;;;;2.28;1.17;;;14.40;99.90;;;-141.84;79.34;20191.88;4983553;28;20275;-62
2023/09/23 00:29:02;;;;;;;2.75;0.73;;;14.30;99.90;;;-141.84;79.46;20220.34;4978667;28;20326;-61
2023/09/23 00:31:30;;;;;;;2.70;0.95;;;14.30;99.90;;;-141.84;79.26;20206.09;4978547;28;20353;-61
2023/09/23 00:33:58;;;;;;;1.23;0.80;;;14.30;99.90;;;-141.84;78.12;20240.66;4984998;28;20318;-60
2023/09/23 00:36:28;;;;;;;1.52;1.00;;;14.30;99.90;;;-141.84;78.58;20189.84;4976488;28;20663;-63
2023/09/23 00:38:56;;;;;;;1.38;0.95;;;14.30;99.90;;;-141.84;79.37;20187.81;4983988;28;20261;-60
2023/09/23 00:41:25;;;;;;;1.40;0.80;;;14.20;99.90;;;-141.84;78.65;20216.25;4973910;28;20263;-61
2023/09/23 00:43:53;;;;;;;1.13;0.90;;;14.20;99.90;;;-141.84;78.15;20214.22;4978909;28;20235;-60
2023/09/23 00:46:23;;;;;;;1.85;0.90;;;14.20;99.90;;;-141.84;78.82;20167.47;4973959;28;20278;-62
2023/09/23 00:48:52;;;;;;;0.88;0.80;;;14.10;99.90;;;-141.84;78.54;20200.00;4968855;28;20247;-62
2023/09/23 00:51:21;;;;;;;3.85;1.35;;;14.10;99.90;;;-141.84;78.89;20187.81;4971253;28;20239;-60
2023/09/23 00:53:51;;;;;;;1.85;0.90;;;14.20;99.90;;;-141.84;78.27;20167.47;4985379;28;20238;-61
2023/09/23 00:56:23;;;;;;;1.25;0.98;;;14.10;99.90;;;-141.84;78.86;20197.97;4985132;28;20241;-61
2023/09/23 00:58:51;;;;;;;2.85;1.05;;;14.10;99.90;;;-141.84;78.13;20212.19;4985173;28;20258;-62
2023/09/23 01:01:21;;;;;;;1.55;0.88;;;14.10;99.90;;;-141.84;78.59;20220.34;4969017;28;20227;-61
2023/09/23 01:03:49;;;;;;;0.73;0.73;;;14.20;99.90;;;-141.84;78.25;20240.66;4975218;28;20231;-62
2023/09/23 01:06:19;;;;;;;1.70;1.00;;;14.30;99.90;;;-141.84;78.11;20195.94;4984849;28;20254;-62
2023/09/23 01:08:47;;;;;;;0.88;0.68;;;14.30;99.90;;;-141.84;77.16;20254.88;4975989;28;20597;-62
2023/09/23 01:11:18;;;;;;;1.35;0.90;;;14.40;99.90;;;-141.84;75.93;20315.88;4970045;28;20751;-61
2023/09/23 01:13:50;;;;;;;1.00;0.90;;;14.60;99.90;;;-141.84;76.19;20301.63;4981667;28;20286;-62
2023/09/23 01:16:21;;;;;;;1.90;1.00;;;14.60;99.90;;;-141.84;74.58;20324.00;4983096;28;20227;-61
2023/09/23 01:18:51;;;;;;;1.23;0.80;;;14.70;99.90;;;-141.84;74.41;20356.50;4984482;28;20227;-61
2023/09/23 01:21:21;;;;;;;2.65;1.08;;;14.70;99.90;;;-141.84;73.92;20370.75;4976869;28;20710;-62
2023/09/23 01:23:51;;;;;;;2.67;1.00;;;14.80;99.90;;;-141.84;74.36;20340.25;4973810;28;20246;-62
2023/09/23 01:26:20;;;;;;;1.45;0.90;;;14.90;99.90;;;-141.84;74.11;20358.56;4974455;28;20228;-61
2023/09/23 01:28:49;;;;;;;2.38;1.27;;;14.80;99.90;;;-141.84;73.62;20384.97;4983741;28;20326;-62
2023/09/23 01:31:21;;;;;;;1.42;0.77;;;14.90;99.90;;;-141.84;73.87;20340.25;4971477;28;20330;-60
2023/09/23 01:33:50;;;;;;;1.33;0.70;;;14.80;99.90;;;-141.84;74.07;20358.56;4968181;28;20237;-61
2023/09/23 01:36:19;;;;;;;1.77;0.80;;;14.80;99.90;;;-141.84;73.88;20338.22;4968376;28;20230;-61
2023/09/23 01:38:48;;;;;;;2.17;0.88;;;14.90;99.90;;;-141.84;73.74;20328.06;4975147;28;20217;-61
2023/09/23 01:41:18;;;;;;;1.13;0.70;;;14.90;99.90;;;-141.84;73.82;20360.59;4976746;28;20285;-63
2023/09/23 01:43:46;;;;;;;0.95;0.73;;;14.80;99.90;;;-141.84;73.47;20348.38;4981587;28;20231;-61
2023/09/23 01:46:14;;;;;;;1.27;0.80;;;14.80;99.90;;;-141.84;73.60;20319.94;4975767;28;20235;-61
2023/09/23 01:48:42;;;;;;;0.70;0.70;;;14.80;99.90;;;-141.84;72.90;20362.63;4977096;28;20227;-62
2023/09/23 01:51:16;;;;;;;0.82;0.80;;;14.80;99.90;;;-141.84;74.01;20336.19;4981857;28;20293;-61
2023/09/23 01:53:44;;;;;;;1.45;0.90;;;14.70;99.90;;;-141.84;74.70;20305.69;4984634;28;20211;-61
2023/09/23 01:56:12;;;;;;;2.05;0.88;;;14.70;99.90;;;-141.84;75.45;20285.38;4984191;28;20263;-61
2023/09/23 01:58:43;;;;;;;1.77;0.80;;;14.60;99.90;;;-141.84;75.60;20289.44;4983828;28;20231;-61
2023/09/23 02:01:13;;;;;;;1.23;0.70;;;14.60;99.90;;;-141.84;75.66;20281.31;4977923;28;20254;-63
2023/09/23 02:03:41;;;;;;;0.70;0.70;;;14.60;99.90;;;-141.84;75.00;20319.94;4975730;28;20234;-61
2023/09/23 02:06:10;;;;;;;0.82;0.80;;;14.50;99.90;;;-141.84;75.12;20305.69;4979157;28;20218;-61
2023/09/23 02:08:38;;;;;;;0.70;0.70;;;14.50;99.90;;;-141.84;75.59;20269.13;4977438;28;20208;-61
2023/09/23 02:11:06;;;;;;;1.00;0.70;;;14.50;99.90;;;-141.84;76.28;20260.97;4983490;28;20235;-61
2023/09/23 02:13:36;;;;;;;1.05;0.70;;;14.50;99.90;;;-141.84;75.87;20260.97;4977093;28;20242;-61
2023/09/23 02:16:06;;;;;;;0.93;0.60;;;14.40;99.90;;;-141.84;76.69;20285.38;4984041;28;20226;-63
2023/09/23 02:18:37;;;;;;;1.10;0.80;;;14.40;99.90;;;-141.84;77.04;20238.63;4974236;28;20323;-60
2023/09/23 02:21:07;;;;;;;1.75;0.80;;;14.30;99.90;;;-141.84;76.78;20212.19;4967232;28;20204;-61
2023/09/23 02:23:35;;;;;;;1.02;0.80;;;14.20;99.90;;;-141.84;77.07;20181.72;4972096;28;20243;-62
2023/09/23 02:26:03;;;;;;;1.33;0.85;;;14.10;99.90;;;-141.84;76.66;20214.22;4971898;28;20227;-61
2023/09/23 02:28:32;;;;;;;0.80;0.73;;;14.10;99.90;;;-141.84;76.60;20177.66;4976633;28;20653;-62
2023/09/23 02:31:00;;;;;;;0.70;0.68;;;14.00;99.90;;;-141.84;76.44;20183.75;4979310;28;20231;-62
2023/09/23 02:33:30;;;;;;;0.52;0.52;;;14.00;99.90;;;-141.84;75.54;20216.25;4974739;28;20239;-62
2023/09/23 02:36:00;;;;;;;1.48;0.73;;;13.90;99.90;;;-141.84;76.31;20206.09;4983223;28;20215;-63
2023/09/23 02:38:31;;;;;;;0.60;0.60;;;13.90;99.90;;;-141.84;77.00;20157.31;4983881;28;20274;-62
2023/09/23 02:41:02;;;;;;;1.48;0.75;;;13.80;99.90;;;-141.84;76.03;20193.91;4983083;28;20678;-60
2023/09/23 02:43:31;;;;;;;1.53;0.87;;;13.90;99.90;;;-141.84;76.20;20185.78;4975665;28;20496;-61
2023/09/23 02:46:00;;;;;;;1.00;0.90;;;13.80;99.90;;;-141.84;76.51;20153.25;4971851;28;20231;-61
2023/09/23 02:48:30;;;;;;;0.90;0.70;;;13.80;99.90;;;-141.84;77.58;20126.84;4982729;28;20228;-61
2023/09/23 02:50:58;;;;;;;1.05;0.80;;;13.70;99.90;;;-141.84;77.85;20155.28;4973164;28;20243;-61
2023/09/23 02:53:27;;;;;;;1.58;0.70;;;13.70;99.90;;;-141.84;77.81;20167.47;4962284;28;20223;-62
2023/09/23 02:56:05;;;;;;;0.80;0.80;;;13.70;99.90;;;-141.84;77.25;20181.72;4982992;28;20790;-61
2023/09/23 02:58:34;;;;;;;0.90;0.70;;;13.70;99.90;;;-141.84;76.91;20177.66;4971504;28;20547;-61
2023/09/23 03:01:04;;;;;;;0.98;0.80;;;13.80;99.90;;;-141.84;77.32;20147.16;4982567;28;20228;-62
2023/09/23 03:03:37;;;;;;;0.80;0.80;;;13.70;99.90;;;-141.84;77.47;20147.16;4975067;28;20242;-63
2023/09/23 03:06:10;;;;;;;2.17;1.02;;;13.70;99.90;;;-141.84;77.87;20145.13;4971634;28;20222;-61
2023/09/23 03:08:38;;;;;;;2.05;0.90;;;13.70;99.90;;;-141.84;77.88;20134.97;4973473;28;20304;-62
2023/09/23 03:11:11;;;;;;;0.98;0.88;;;13.60;99.90;;;-141.84;76.30;20157.31;4982550;28;20278;-61
2023/09/23 03:13:39;;;;;;;1.83;1.10;;;13.70;99.90;;;-141.84;76.74;20126.84;4971075;28;20273;-62
2023/09/23 03:16:14;;;;;;;0.68;0.68;;;13.70;99.90;;;-141.84;77.44;20116.66;4983188;28;20308;-62
2023/09/23 03:18:55;;;;;;;1.67;0.90;;;13.60;99.90;;;-141.84;77.97;20094.31;4982399;28;20264;-63
2023/09/23 03:21:23;;;;;;;1.17;0.80;;;13.60;99.90;;;-141.84;78.52;20098.38;4973123;28;20230;-61
2023/09/23 03:23:53;;;;;;;0.90;0.70;;;13.60;99.90;;;-141.84;78.87;20104.47;4983519;28;20490;-61
2023/09/23 03:26:21;;;;;;;0.73;0.70;;;13.50;99.90;;;-141.84;78.96;20078.06;4971247;28;20255;-62
2023/09/23 03:28:49;;;;;;;1.00;0.75;;;13.50;99.90;;;-141.84;79.77;20080.09;4982424;28;20238;-60
2023/09/23 03:31:17;;;;;;;1.08;0.70;;;13.40;99.90;;;-141.84;80.07;20057.72;4975528;28;20238;-62
2023/09/23 03:33:47;;;;;;;1.55;0.82;;;13.40;99.90;;;-141.84;80.07;20078.06;4976201;28;20243;-61
2023/09/23 03:36:16;;;;;;;1.85;1.17;;;13.30;99.90;;;-141.84;79.53;20065.84;4970870;28;20211;-62
2023/09/23 03:38:46;;;;;;;0.80;0.80;;;13.30;99.90;;;-141.84;79.55;20043.50;4983245;28;20208;-61
2023/09/23 03:41:14;;;;;;;0.90;0.80;;;13.30;99.90;;;-141.84;79.31;20098.38;4978108;28;20545;-61
2023/09/23 03:43:43;;;;;;;1.25;0.95;;;13.20;99.90;;;-141.84;79.82;20013.00;4987299;28;20239;-62
2023/09/23 03:46:15;;;;;;;1.67;0.88;;;13.20;99.90;;;-141.84;80.14;20043.50;4986512;28;20239;-62
2023/09/23 03:48:43;;;;;;;1.33;0.90;;;13.20;99.90;;;-141.84;79.47;20067.88;4979513;28;20235;-61
2023/09/23 03:51:14;;;;;;;1.23;0.93;;;13.20;99.90;;;-141.84;79.68;20031.31;4979162;28;20203;-62
2023/09/23 03:53:44;;;;;;;0.88;0.88;;;13.20;99.90;;;-141.84;80.21;20045.53;4986693;28;20245;-62
2023/09/23 03:56:13;;;;;;;1.25;0.90;;;13.10;99.90;;;-141.84;80.12;20035.38;4983915;28;20266;-61
2023/09/23 03:58:43;;;;;;;1.37;1.10;;;13.10;99.90;;;-141.84;79.63;20041.47;4986125;28;20243;-62
2023/09/23 04:01:13;;;;;;;1.95;1.10;;;13.10;99.90;;;-141.84;79.85;20021.16;4983736;28;20242;-62
2023/09/23 04:03:41;;;;;;;2.10;1.20;;;13.30;99.90;;;-141.84;79.10;20041.47;4983606;28;20234;-62
2023/09/23 04:06:11;;;;;;;1.20;0.90;;;13.10;99.90;;;-141.84;77.75;20076.03;4977537;28;20743;-61
2023/09/23 04:08:41;;;;;;;1.20;1.10;;;13.10;99.90;;;-141.84;77.71;20090.25;4986281;28;20211;-61
2023/09/23 04:11:10;;;;;;;3.72;0.90;;;13.10;99.90;;;-141.84;77.44;20078.06;4985476;28;20714;-61
2023/09/23 04:13:38;;;;;;;1.25;0.90;;;13.10;99.90;;;-141.84;77.45;20031.31;4977793;28;20236;-60
2023/09/23 04:16:06;;;;;;;2.25;0.98;;;13.10;99.90;;;-141.84;77.32;20045.53;4984590;28;20231;-62
2023/09/23 04:18:35;;;;;;;1.20;1.00;;;13.20;99.90;;;-141.84;76.97;20100.41;4974818;28;20235;-61
2023/09/23 04:21:03;;;;;;;0.90;0.90;;;13.20;99.90;;;-141.84;76.93;20084.16;4977367;28;20239;-61
2023/09/23 04:23:32;;;;;;;1.23;1.10;;;13.10;99.90;;;-141.84;77.42;20088.22;4976381;28;20243;-62
2023/09/23 04:26:03;;;;;;;2.42;1.00;;;13.10;99.90;;;-141.84;77.34;20049.59;4981052;28;20719;-61
2023/09/23 04:28:32;;;;;;;1.77;0.90;;;13.00;99.90;;;-141.84;76.63;20110.56;4979377;28;20223;-61
2023/09/23 04:31:00;;;;;;;0.93;0.82;;;13.10;99.90;;;-141.84;78.18;20035.38;4974032;28;20259;-59
2023/09/23 04:33:28;;;;;;;1.30;1.10;;;13.10;99.90;;;-141.84;78.18;20055.69;4979454;28;20742;-60
2023/09/23 04:35:58;;;;;;;1.95;0.90;;;13.10;99.90;;;-141.84;77.64;20041.47;4977862;28;20212;-63
2023/09/23 04:38:26;;;;;;;1.50;1.20;;;13.00;99.90;;;-141.84;77.95;20021.16;4973961;28;20215;-61
2023/09/23 04:40:55;;;;;;;1.27;0.90;;;13.00;99.90;;;-141.84;78.06;20023.19;4985200;28;20265;-62
2023/09/23 04:43:25;;;;;;;0.90;0.90;;;13.00;99.90;;;-141.84;78.10;19992.69;4977987;28;20785;-61
2023/09/23 04:45:54;;;;;;;1.88;1.05;;;13.00;99.90;;;-141.84;77.71;20061.78;4981134;28;20315;-62
2023/09/23 04:48:24;;;;;;;1.20;1.10;;;12.90;99.90;;;-141.84;77.42;20118.69;4971009;28;20228;-60
2023/09/23 04:50:55;;;;;;;1.23;1.13;;;13.00;99.90;;;-141.84;77.86;20043.50;4979843;28;20253;-61
2023/09/23 04:53:24;;;;;;;1.30;1.20;;;13.00;99.90;;;-141.84;77.54;20027.25;4977503;28;20238;-61
2023/09/23 04:55:52;;;;;;;1.17;0.90;;;12.90;99.90;;;-141.84;77.63;20023.19;4977844;28;20227;-61
2023/09/23 04:58:21;;;;;;;1.73;1.00;;;12.90;99.90;;;-141.84;78.43;19990.66;4969983;28;20778;-62
2023/09/23 05:00:52;;;;;;;1.95;1.10;;;12.90;99.90;;;-141.84;78.59;19984.56;4981780;28;20271;-61
2023/09/23 05:03:23;;;;;;;1.33;1.15;;;12.90;99.90;;;-141.84;78.43;20033.34;4961766;28;20581;-61
2023/09/23 05:05:51;;;;;;;1.30;1.20;;;12.80;99.90;;;-141.84;78.66;19982.53;4983950;28;20234;-61
2023/09/23 05:08:19;;;;;;;1.27;1.02;;;12.80;99.90;;;-141.84;78.06;19988.63;4983420;28;20679;-61
2023/09/23 05:10:49;;;;;;;2.47;1.10;;;12.80;99.90;;;-141.84;78.50;19990.66;4982338;28;20254;-61
2023/09/23 05:13:17;;;;;;;1.40;1.17;;;12.80;99.90;;;-141.84;76.87;20049.59;4966517;28;20223;-61
2023/09/23 05:15:46;;;;;;;1.67;1.17;;;12.90;99.90;;;-141.84;76.78;20057.72;4985448;28;20235;-61
2023/09/23 05:18:17;;;;;;;1.10;1.00;;;12.90;99.90;;;-141.84;75.98;20069.94;4985428;28;20215;-62
2023/09/23 05:20:47;;;;;;;1.77;1.33;;;13.00;99.90;;;-141.84;76.63;20051.63;4985557;28;20207;-62
2023/09/23 05:23:16;;;;;;;1.10;0.93;;;13.00;99.90;;;-141.84;77.02;20039.44;4967931;28;20228;-61
2023/09/23 05:25:45;;;;;;;1.83;1.17;;;13.00;99.90;;;-141.84;75.81;20059.75;4985387;28;20234;-61
2023/09/23 05:28:13;;;;;;;2.03;1.00;;;13.00;99.90;;;-141.84;75.60;20104.47;4984892;28;20714;-61
2023/09/23 05:30:42;;;;;;;1.07;0.97;;;13.00;99.90;;;-141.84;74.64;20130.91;4984782;28;20257;-62
2023/09/23 05:33:10;;;;;;;1.70;1.20;;;13.10;99.90;;;-141.84;75.16;20063.81;4984280;28;20223;-63
2023/09/23 05:35:40;;;;;;;1.00;0.90;;;13.10;99.90;;;-141.84;75.63;20063.81;4978493;28;20215;-62
2023/09/23 05:38:10;;;;;;;2.47;1.10;;;13.10;99.90;;;-141.84;75.88;20057.72;4984468;28;20230;-62
2023/09/23 05:40:38;;;;;;;1.33;1.00;;;13.10;99.90;;;-141.84;74.63;20086.19;4984223;28;20257;-60
2023/09/23 05:43:06;;;;;;;1.43;0.90;;;13.10;99.90;;;-141.84;74.68;20102.44;4977051;28;20231;-62
2023/09/23 05:45:37;;;;;;;2.00;1.00;;;13.10;99.90;;;-141.84;75.05;20088.22;4976495;28;20750;-61
2023/09/23 05:48:06;;;;;;;1.40;1.10;;;13.20;99.90;;;-141.84;73.52;20179.69;4984544;28;20262;-61
2023/09/23 05:50:36;;;;;;;0.87;0.87;;;13.30;99.90;;;-141.84;72.80;20155.28;4972321;28;20215;-61
2023/09/23 05:53:05;;;;;;;0.80;0.80;;;13.30;99.90;;;-141.84;72.84;20163.41;4985196;28;20286;-62
2023/09/23 05:55:34;;;;;;;1.40;0.90;;;13.40;99.90;;;-141.84;72.76;20137.00;4965868;28;20251;-61
2023/09/23 05:58:02;;;;;;;1.00;0.90;;;13.40;99.90;;;-141.84;72.01;20189.84;4981099;28;20236;-61
2023/09/23 06:00:30;;;;;;;2.43;1.03;;;13.50;99.90;;;-141.84;71.50;20208.13;4978121;28;20238;-61
2023/09/23 06:02:58;;;;;;;1.33;0.82;;;13.50;99.90;;;-141.84;71.63;20193.91;4983266;28;20204;-62
2023/09/23 06:05:27;;;;;;;2.30;0.93;;;13.60;99.90;;;-141.84;71.49;20244.72;4964293;28;20243;-62
2023/09/23 06:07:56;;;;;;;2.10;0.93;;;13.70;99.90;;;-141.84;71.43;20175.63;4979017;28;20263;-62
2023/09/23 06:10:25;;;;;;;2.58;1.00;;;13.70;99.90;;;-141.84;71.71;20185.78;4984420;28;20234;-62
2023/09/23 06:12:54;;;;;;;1.00;0.90;;;13.70;99.90;;;-141.84;71.63;20204.06;4968379;28;20234;-62
2023/09/23 06:15:22;;;;;;;1.80;0.93;;;13.70;99.90;;;-141.84;71.49;20218.31;4969128;28;20231;-61
2023/09/23 06:17:50;;;;;;;0.77;0.70;;;13.80;99.90;;;-141.84;70.28;20252.84;4983965;28;20226;-62
2023/09/23 06:20:19;;;;;;;0.85;0.85;;;13.90;99.90;;;-141.84;70.55;20265.03;4988938;28;20810;-62
2023/09/23 06:22:47;;;;;;;2.38;1.10;;;13.90;99.90;;;-141.84;71.62;20240.66;4967831;28;20228;-61
2023/09/23 06:25:17;;;;;;;0.85;0.70;;;13.80;99.90;;;-141.84;72.27;20216.25;4974328;28;20254;-62
2023/09/23 06:27:48;;;;;;;1.23;0.85;;;13.90;99.90;;;-141.84;71.97;20222.38;4972749;28;20239;-61
2023/09/23 06:30:17;;;;;;;0.80;0.80;;;13.90;99.90;;;-141.84;71.78;20226.44;4982780;28;20656;-62
2023/09/23 06:32:47;;;;;;;1.08;0.80;;;13.90;99.90;;;-141.84;69.99;20297.56;4983293;28;20474;-62
2023/09/23 06:35:15;;;;;;;0.95;0.80;;;14.00;99.90;;;-141.84;69.94;20326.03;4976174;28;20421;-60
2023/09/23 06:37:44;;;;;;;0.85;0.70;;;14.10;99.90;;;-141.84;70.77;20279.28;4982961;28;20648;-61
2023/09/23 06:40:12;;;;;;;0.80;0.80;;;14.10;99.90;;;-141.84;70.34;20311.78;4971356;28;20615;-63
2023/09/23 06:42:40;;;;;;;1.70;0.90;;;14.20;99.90;;;-141.84;70.97;20315.88;4983464;28;20655;-64
2023/09/23 06:45:12;;;;;;;0.70;0.70;;;14.30;99.90;;;-141.84;68.30;20413.44;4983230;28;20263;-64
2023/09/23 06:47:40;;;;;;;0.90;0.70;;;14.40;99.90;;;-141.84;67.78;20415.47;4971774;28;20231;-63
2023/09/23 06:50:09;;;;;;;1.95;0.70;;;14.60;99.90;;;-141.84;66.79;20460.19;4988917;28;20302;-63
2023/09/23 06:52:37;;;;;;;0.60;0.60;;;14.70;99.90;;;-141.84;66.58;20460.19;4972193;28;20239;-64
2023/09/23 06:55:06;;;;;;;2.80;0.70;;;14.80;99.90;;;-141.84;66.79;20454.09;4980530;28;20587;-63
2023/09/23 06:57:35;;;;;;;0.80;0.60;;;14.90;99.90;;;-141.84;66.91;20415.47;4966447;28;20318;-64
2023/09/23 07:00:07;;;;;;;1.23;0.65;;;14.80;99.90;;;-141.84;67.59;20419.53;4978618;28;20255;-63
2023/09/23 07:02:37;;;;;;;1.25;0.90;;;14.80;99.90;;;-141.84;66.82;20456.13;4983019;28;20208;-63
2023/09/23 07:05:06;;;;;;;1.55;0.80;;;14.90;99.90;;;-141.84;65.46;20488.63;4975273;28;20324;-63
2023/09/23 07:07:34;;;;;;;1.70;0.80;;;15.00;99.90;;;-141.84;65.34;20480.50;4963850;28;20236;-62
2023/09/23 07:10:04;;;;;;;0.73;0.70;;;15.00;99.90;;;-141.84;65.55;20494.75;4969981;28;20255;-63
2023/09/23 07:12:32;;;;;;;0.95;0.60;;;15.00;99.90;;;-141.84;65.55;20492.72;4982709;28;20247;-65
2023/09/23 07:15:00;;;;;;;0.68;0.65;;;15.10;99.90;;;-141.84;65.01;20559.78;4981349;28;20294;-62
2023/09/23 07:17:28;;;;;;;0.93;0.82;;;15.10;99.90;;;-141.84;65.18;20529.28;4962853;28;20239;-62
2023/09/23 07:19:58;;;;;;;1.25;0.70;;;15.10;99.90;;;-141.84;65.25;20527.25;4987359;28;20231;-61
2023/09/23 07:22:26;;;;;;;0.60;0.60;;;15.10;99.90;;;-141.84;65.33;20533.34;4970938;28;20235;-62
2023/09/23 07:24:55;;;;;;;1.38;0.75;;;15.10;99.90;;;-141.84;64.97;20521.16;4978709;28;20298;-60
2023/09/23 07:27:24;;;;;;;0.85;0.80;;;15.10;99.90;;;-141.84;65.04;20598.41;4978267;28;20318;-61
2023/09/23 07:29:52;;;;;;;1.15;0.73;;;15.20;99.90;;;-141.84;65.82;20525.22;4978209;28;20601;-61
2023/09/23 07:32:21;;;;;;;0.70;0.70;;;15.30;99.90;;;-141.84;65.07;20606.53;4974949;28;20310;-61
2023/09/23 07:34:49;;;;;;;0.60;0.60;;;15.30;99.90;;;-141.84;64.11;20594.34;4975869;28;20715;-62
2023/09/23 07:37:18;;;;;;;1.35;0.80;;;15.40;99.90;;;-141.84;64.68;20612.63;4982867;28;20217;-61
2023/09/23 07:39:47;;;;;;;0.70;0.70;;;15.40;99.90;;;-141.84;64.02;20616.69;4978442;28;20671;-62
2023/09/23 07:42:15;;;;;;;1.10;0.90;;;15.50;99.90;;;-141.84;63.20;20614.66;4974998;28;20286;-62
2023/09/23 07:44:43;;;;;;;1.17;1.08;;;15.50;99.90;;;-141.84;62.99;20630.94;4981984;28;20480;-61
2023/09/23 07:47:11;;;;;;;1.60;0.90;;;15.70;99.90;;;-141.84;63.24;20639.06;4981391;28;20230;-61
2023/09/23 07:49:39;;;;;;;1.60;0.80;;;15.70;99.90;;;-141.84;63.33;20667.53;4982258;28;20274;-63
2023/09/23 07:52:08;;;;;;;0.98;0.90;;;15.80;99.90;;;-141.84;61.82;20716.31;4983372;28;20217;-62
2023/09/23 07:54:38;;;;;;;0.98;0.85;;;15.90;99.90;;;-141.84;62.06;20691.91;4976457;28;20231;-61
2023/09/23 07:57:06;;;;;;;1.30;1.20;;;15.90;99.90;;;-141.84;61.66;20734.59;4978312;28;20225;-62
2023/09/23 07:59:35;;;;;;;1.48;1.13;;;16.00;99.90;;;-141.84;61.27;20752.91;4982612;28;20285;-63
2023/09/23 08:02:03;;;;;;;2.13;1.00;;;16.20;99.90;;;-141.84;59.86;20817.94;4982352;28;20231;-62
2023/09/23 08:04:31;;;;;;;1.63;0.90;;;16.30;99.90;;;-141.84;59.62;20811.84;4974394;28;20223;-63
2023/09/23 08:07:00;;;;;;;2.05;0.95;;;16.40;99.90;;;-141.84;60.05;20801.69;4983519;28;20199;-62
2023/09/23 08:09:28;;;;;;;1.17;1.08;;;16.50;99.90;;;-141.84;59.15;20781.38;4982916;28;20729;-62
2023/09/23 08:11:58;;;;;;;1.95;1.10;;;16.40;99.90;;;-141.84;59.56;20744.78;4982971;28;20285;-62
2023/09/23 08:14:27;;;;;;;1.50;1.20;;;16.20;99.90;;;-141.84;59.51;20789.50;4974907;28;20227;-61
2023/09/23 08:16:55;;;;;;;1.42;1.00;;;16.30;99.90;;;-141.84;59.81;20756.97;4980836;28;20560;-62
2023/09/23 08:19:24;;;;;;;1.10;0.90;;;16.20;99.90;;;-141.84;60.29;20700.03;4989578;28;20265;-62
2023/09/23 08:21:53;;;;;;;1.00;0.90;;;16.00;99.90;;;-141.84;59.48;20759.00;4983297;28;20565;-61
2023/09/23 08:24:21;;;;;;;1.35;0.88;;;16.10;99.90;;;-141.84;60.21;20756.97;4975487;28;20643;-61
2023/09/23 08:26:49;;;;;;;1.15;1.00;;;16.10;99.90;;;-141.84;59.71;20775.25;4985755;28;20245;-63
2023/09/23 08:29:20;;;;;;;1.60;1.08;;;16.20;99.90;;;-141.84;58.21;20777.28;4986081;28;20227;-63
2023/09/23 08:31:48;;;;;;;0.80;0.80;;;16.20;99.90;;;-141.84;59.00;20805.75;4981568;28;20723;-63
2023/09/23 08:34:17;;;;;;;1.60;0.82;;;16.30;99.90;;;-141.84;58.38;20862.69;4985853;28;20698;-61
2023/09/23 08:36:45;;;;;;;1.63;1.00;;;16.50;99.90;;;-141.84;58.83;20781.38;4986273;28;20231;-62
2023/09/23 08:39:13;;;;;;;1.20;0.80;;;16.50;99.90;;;-141.84;57.57;20844.38;4986058;28;20242;-62
2023/09/23 08:41:51;;;;;;;1.02;0.93;;;16.50;99.90;;;-141.84;57.50;20848.44;4986138;28;20271;-64
2023/09/23 08:44:23;;;;;;;0.77;0.77;;;16.60;99.90;;;-141.84;57.44;20915.53;4982384;28;20754;-61
2023/09/23 08:46:53;;;;;;;1.17;1.00;;;16.70;99.90;;;-141.84;57.01;20840.31;4985982;28;20768;-61
2023/09/23 08:49:22;;;;;;;1.23;0.90;;;16.70;99.90;;;-141.84;58.51;20842.34;4993635;28;20221;-61
2023/09/23 08:51:55;;;;;;;1.52;0.95;;;16.50;99.90;;;-141.84;57.80;20854.53;4986332;28;20278;-61
2023/09/23 08:54:28;;;;;;;1.30;0.90;;;16.50;99.90;;;-141.84;58.21;20850.47;4979196;28;20577;-61
2023/09/23 08:56:57;;;;;;;0.80;0.80;;;16.50;99.90;;;-141.84;57.95;20874.88;4985860;28;20239;-62
2023/09/23 08:59:27;;;;;;;1.27;0.90;;;16.50;99.90;;;-141.84;56.98;20927.72;4985760;28;20318;-62
2023/09/23 09:01:56;;;;;;;0.95;0.82;;;16.70;99.90;;;-141.84;56.40;20972.47;4985680;28;20238;-62
2023/09/23 09:04:26;;;;;;;1.52;0.88;;;16.90;99.90;;;-141.84;55.94;20982.63;4977515;28;20239;-61
2023/09/23 09:06:55;;;;;;;1.05;0.90;;;17.00;99.90;;;-141.84;55.83;21002.94;4986167;28;20214;-62
2023/09/23 09:09:25;;;;;;;1.52;1.20;;;17.10;99.90;;;-141.84;55.12;20954.16;4986032;28;20572;-62
2023/09/23 09:11:55;;;;;;;1.55;1.10;;;17.10;99.90;;;-141.84;55.51;20980.59;4985525;28;20227;-63
2023/09/23 09:14:23;;;;;;;1.10;1.00;;;17.00;99.90;;;-141.84;54.96;20966.34;4978784;28;20235;-62
2023/09/23 09:16:54;;;;;;;1.25;0.90;;;17.00;99.90;;;-141.84;55.14;20968.38;4985596;28;20608;-62
2023/09/23 09:19:22;;;;;;;2.20;0.95;;;17.10;99.90;;;-141.84;55.15;21033.44;4993057;28;20218;-61
2023/09/23 09:21:51;;;;;;;1.23;0.93;;;17.20;99.90;;;-141.84;54.60;21033.44;4986225;28;20215;-64
2023/09/23 09:24:19;;;;;;;1.55;0.85;;;17.30;99.90;;;-141.84;55.05;21023.28;4979708;28;20374;-62
2023/09/23 09:26:49;;;;;;;1.88;1.20;;;17.30;99.90;;;-141.84;53.84;21126.97;4985425;28;20243;-62
2023/09/23 09:29:17;;;;;;;1.75;0.85;;;17.50;99.90;;;-141.84;54.28;21141.19;4984752;28;20774;-61
2023/09/23 09:31:51;;;;;;;2.47;1.80;;;17.60;99.90;;;-141.84;54.15;21145.25;4981387;28;20314;-64
2023/09/23 09:34:30;;;;;;;1.63;1.10;;;17.70;99.90;;;-141.84;54.67;21053.78;4979051;28;20249;-63
2023/09/23 09:36:59;;;;;;;1.70;1.10;;;17.60;99.90;;;-141.84;54.56;21094.44;4984947;28;20328;-64
2023/09/23 09:39:30;;;;;;;1.65;1.25;;;17.60;99.90;;;-141.84;55.34;21124.94;4984258;28;20664;-62
2023/09/23 09:42:03;;;;;;;1.58;1.05;;;17.70;99.90;;;-141.84;54.79;21141.19;4984907;28;20227;-62
2023/09/23 09:44:33;;;;;;;1.23;0.98;;;17.70;99.90;;;-141.84;54.21;21102.56;4977282;28;20223;-66
2023/09/23 09:47:03;;;;;;;1.88;0.93;;;17.80;99.90;;;-141.84;53.63;21196.09;4984940;28;20230;-63
2023/09/23 09:49:34;;;;;;;1.08;0.90;;;17.90;99.90;;;-141.84;52.78;21253.00;4992428;28;20223;-63
2023/09/23 09:52:04;;;;;;;1.10;0.80;;;18.00;99.90;;;-141.84;53.58;21267.25;4985320;28;20454;-65
2023/09/23 09:54:36;;;;;;;2.30;1.00;;;18.20;99.90;;;-141.84;53.00;21181.84;4976703;28;20634;-63
2023/09/23 09:57:07;;;;;;;1.00;0.90;;;18.10;99.90;;;-141.84;53.22;21216.41;4985262;28;20333;-62
2023/09/23 09:59:37;;;;;;;2.67;0.98;;;18.10;99.90;;;-141.84;53.63;21192.03;4984917;28;20279;-63
2023/09/23 10:02:07;;;;;;;3.60;0.90;;;18.00;99.90;;;-141.84;52.47;21200.16;4984799;28;20239;-62
2023/09/23 10:04:37;;;;;;;1.92;1.05;;;18.10;99.90;;;-141.84;52.66;21216.41;4976440;28;20235;-62
2023/09/23 10:07:08;;;;;;;0.98;0.80;;;18.20;99.90;;;-141.84;53.78;21169.66;4984958;28;20310;-63
2023/09/23 10:09:38;;;;;;;2.55;1.00;;;18.10;99.90;;;-141.84;52.16;21248.94;4985045;28;20207;-62
2023/09/23 10:12:08;;;;;;;1.38;1.00;;;18.20;99.90;;;-141.84;52.25;21267.25;4984525;28;20254;-62
2023/09/23 10:14:37;;;;;;;3.80;1.00;;;18.20;99.90;;;-141.84;52.66;21226.59;4976809;28;20314;-61